aviador You're here:

KDET Decoded Metar

DETROIT in MI, USA
Report Time2017-08-23 01:53:00
UTC Time2017-08-23 02:10:12
Flight Rules vfr VFR
Wind320° at 08 kt
W.Decomp.*RWY 33: 8.0 kt HW 0.7 kt LCW
RWY 25: 2.1 kt HW 7.7 kt RCW
W.Rank320° ranks 16
Current wind is above 320° avg. (7.2)
Visibility9999 m
Phenomena:N/A
Clouds:N/A
Expected CloudBase > 3,600 ft AGL from Temp-Dew spread
CeilingNone
Temp21°C (ISA +7)
Dew Point12°C (57% RH)
AAT18.8°C
QNH1012 hPa
Density Alt1,693 ft
Elevation623 ft
Report Wrong Elevation
Raw Report
KDET 230153Z 32008KT 10SM CLR 21/12 A2987 RMK AO2 SLP111
T02110122=

Extra information for KDET:More info

Metar Taf Metar & Taf Last 4 Metars F.Rules Stats Wind Profile Meteogram Temp Stats Airport Information Weather charts Add Link Nearby VenuesMetar ALERT Operation Metar Decoded Social comments

AIRNAV info for KDET